Weather at Sotos Airport

Public forecast

Using degrees Celsius for public forecast. Weather courtesy of forecast.io.

Closest aviation weather report (METAR) to Sotos Airport

Closest report is Teruel Airport, 44.0 nm (81.5 km) ENE. Retrieved 2021/04/17 10:00 UTC (27 minutes ago):

LETL 171000Z AUTO 35016KT 320V020 9999 FEW037 06/M05 Q1017

Closest aviation forecast (TAF) to Sotos Airport

Closest forecast is Teruel Airport, 44.0 nm (81.5 km) ENE. Retrieved 2021/04/17 06:00 UTC (4 hours ago):

TAF LETL 170500Z 1706/1806 35008KT 9999 SCT030 TX13/1714Z TN00/1706Z BECMG 1707/1709 35018KT TEMPO 1709/1718 35018G28KT